createdAt,value
2022-07-28T00:00:02.347Z,63.49
2022-07-28T00:01:02.327Z,63.79
2022-07-28T00:02:02.356Z,65.61
2022-07-28T00:03:02.379Z,63.54
2022-07-28T00:04:02.265Z,63.95
2022-07-28T00:05:02.257Z,63.37
2022-07-28T00:06:02.231Z,63.47
2022-07-28T00:07:02.226Z,63.62
2022-07-28T00:08:02.187Z,65.65
2022-07-28T00:09:02.176Z,63.62
2022-07-28T00:10:02.154Z,64.03
2022-07-28T00:11:02.138Z,62.93
2022-07-28T00:12:02.168Z,63.57
2022-07-28T00:13:02.123Z,63.64
2022-07-28T00:14:02.098Z,67.15
2022-07-28T00:15:02.060Z,64.48
2022-07-28T00:16:02.117Z,65.99
2022-07-28T00:17:02.040Z,65.16
2022-07-28T00:18:02.024Z,64.87
2022-07-28T00:19:02.419Z,65.15
2022-07-28T00:20:01.983Z,63.71
2022-07-28T00:21:01.961Z,65.13
2022-07-28T00:22:01.927Z,65.21
2022-07-28T00:23:01.950Z,63.07
2022-07-28T00:24:01.894Z,64.55
2022-07-28T00:25:01.879Z,64.85
2022-07-28T00:26:01.846Z,64.94
2022-07-28T00:27:01.846Z,63.89
2022-07-28T00:28:01.867Z,64.50
2022-07-28T00:29:01.878Z,64.60
2022-07-28T00:30:01.794Z,65.87
2022-07-28T00:31:04.955Z,65.02
2022-07-28T00:32:02.823Z,65.18
2022-07-28T00:33:01.735Z,65.15
2022-07-28T00:34:01.742Z,66.14
2022-07-28T00:35:02.438Z,62.98
2022-07-28T00:36:01.712Z,64.33
2022-07-28T00:37:01.665Z,63.40
2022-07-28T00:38:02.700Z,64.06
2022-07-28T00:39:01.670Z,63.39
2022-07-28T00:40:01.621Z,63.04
2022-07-28T00:41:01.628Z,62.83
2022-07-28T00:42:01.577Z,63.76
2022-07-28T00:43:01.576Z,62.37
2022-07-28T00:44:01.548Z,63.37
2022-07-28T00:45:01.540Z,63.24
2022-07-28T00:46:01.527Z,62.18
2022-07-28T00:47:01.618Z,62.95
2022-07-28T00:48:01.456Z,62.98
2022-07-28T00:49:01.572Z,63.43
2022-07-28T00:50:01.427Z,62.51
2022-07-28T00:51:01.449Z,67.01
2022-07-28T00:52:01.392Z,65.66
2022-07-28T00:53:01.386Z,62.10
2022-07-28T00:54:01.363Z,64.61
2022-07-28T00:55:01.353Z,65.38
2022-07-28T00:56:03.536Z,63.01
2022-07-28T00:57:02.304Z,63.54
2022-07-28T00:58:01.297Z,66.20
2022-07-28T00:59:01.263Z,63.55
2022-07-28T01:00:01.243Z,63.48
2022-07-28T01:01:01.264Z,63.39
2022-07-28T01:02:01.502Z,62.65
2022-07-28T01:03:01.226Z,62.57
2022-07-28T01:04:01.171Z,62.96
2022-07-28T01:05:01.145Z,62.46
2022-07-28T01:06:01.154Z,64.76
2022-07-28T01:07:01.112Z,65.69
2022-07-28T01:08:01.087Z,63.61
2022-07-28T01:09:01.077Z,63.21
2022-07-28T01:10:01.049Z,65.09
2022-07-28T01:11:01.056Z,63.39
2022-07-28T01:12:01.135Z,65.51
2022-07-28T01:13:01.017Z,64.79
2022-07-28T01:14:00.987Z,64.60
2022-07-28T01:15:00.975Z,63.28
2022-07-28T01:16:01.012Z,62.40
2022-07-28T01:17:00.933Z,63.98
2022-07-28T01:18:00.904Z,63.89
2022-07-28T01:19:00.905Z,62.36
2022-07-28T01:20:00.881Z,65.39
2022-07-28T01:21:00.872Z,65.90
2022-07-28T01:22:00.869Z,63.43
2022-07-28T01:23:00.834Z,63.32
2022-07-28T01:24:00.798Z,63.60
2022-07-28T01:25:00.773Z,63.52
2022-07-28T01:26:00.778Z,62.23
2022-07-28T01:27:00.776Z,63.19
2022-07-28T01:28:00.715Z,63.16
2022-07-28T01:29:00.704Z,62.43
2022-07-28T01:30:00.690Z,62.55
2022-07-28T01:31:00.743Z,63.40
2022-07-28T01:32:00.698Z,64.05
2022-07-28T01:33:00.665Z,63.40
2022-07-28T01:34:00.612Z,64.09
2022-07-28T01:35:00.596Z,63.19
2022-07-28T01:36:00.566Z,62.41
2022-07-28T01:37:00.575Z,62.82
2022-07-28T01:38:00.575Z,62.33
2022-07-28T01:39:00.535Z,62.34
2022-07-28T01:40:00.488Z,63.50
2022-07-28T01:41:00.578Z,64.74
2022-07-28T01:42:00.475Z,63.67
2022-07-28T01:43:00.480Z,62.67
2022-07-28T01:44:00.420Z,63.43
2022-07-28T01:45:00.394Z,63.37
2022-07-28T01:46:00.390Z,62.47
2022-07-28T01:47:00.373Z,64.59
2022-07-28T01:48:00.402Z,62.19
2022-07-28T01:49:00.404Z,63.38
2022-07-28T01:50:00.324Z,63.20
2022-07-28T01:51:00.320Z,62.83
2022-07-28T01:52:00.274Z,62.82
2022-07-28T01:53:00.313Z,63.31
2022-07-28T01:54:00.231Z,64.34
2022-07-28T01:55:00.236Z,63.42
2022-07-28T01:56:00.241Z,63.00
2022-07-28T01:57:00.187Z,62.29
2022-07-28T01:58:00.193Z,62.28
2022-07-28T01:59:00.188Z,62.44
2022-07-28T02:00:00.174Z,64.86
2022-07-28T02:01:00.129Z,64.06
2022-07-28T02:02:00.244Z,63.51
2022-07-28T02:03:00.105Z,62.82
2022-07-28T02:04:00.100Z,63.83
2022-07-28T02:05:00.223Z,63.46
2022-07-28T02:06:00.063Z,65.38
2022-07-28T02:07:00.009Z,64.63
2022-07-28T02:07:59.979Z,62.36
2022-07-28T02:08:59.999Z,65.89
2022-07-28T02:09:59.972Z,63.94
2022-07-28T02:10:59.944Z,64.60
2022-07-28T02:11:59.939Z,65.99
2022-07-28T02:12:59.879Z,63.43
2022-07-28T02:13:59.916Z,63.31
2022-07-28T02:14:59.869Z,63.00
2022-07-28T02:15:59.909Z,63.28
2022-07-28T02:16:59.809Z,65.96
2022-07-28T02:17:59.811Z,63.35
2022-07-28T02:18:59.784Z,63.13
2022-07-28T02:19:59.798Z,64.51
2022-07-28T02:20:59.748Z,63.97
2022-07-28T02:21:59.716Z,64.55
2022-07-28T02:22:59.708Z,64.26
2022-07-28T02:23:59.721Z,64.81
2022-07-28T02:24:59.707Z,64.07
2022-07-28T02:25:59.652Z,66.30
2022-07-28T02:26:59.618Z,63.50
2022-07-28T02:27:59.618Z,64.50
2022-07-28T02:28:59.593Z,64.24
2022-07-28T02:29:59.660Z,67.14
2022-07-28T02:30:59.637Z,66.59
2022-07-28T02:31:59.530Z,67.03
2022-07-28T02:32:59.530Z,65.54
2022-07-28T02:34:02.278Z,63.40
2022-07-28T02:34:59.569Z,65.61
2022-07-28T02:35:59.516Z,63.73
2022-07-28T02:36:59.434Z,66.26
2022-07-28T02:37:59.442Z,67.57
2022-07-28T02:38:59.429Z,65.80
2022-07-28T02:40:00.571Z,66.62
2022-07-28T02:40:59.377Z,65.96
2022-07-28T02:41:59.413Z,65.52
2022-07-28T02:42:59.362Z,64.55
2022-07-28T02:43:59.330Z,64.57
2022-07-28T02:44:59.319Z,64.30
2022-07-28T02:45:59.348Z,64.83
2022-07-28T02:46:59.311Z,63.89
2022-07-28T02:47:59.250Z,64.55
2022-07-28T02:48:59.359Z,63.45
2022-07-28T02:49:59.217Z,64.93
2022-07-28T02:50:59.247Z,66.46
2022-07-28T02:51:59.192Z,65.28
2022-07-28T02:52:59.246Z,64.03
2022-07-28T02:53:59.115Z,63.45
2022-07-28T02:54:59.259Z,62.76
2022-07-28T02:55:59.079Z,65.14
2022-07-28T02:56:59.141Z,63.51
2022-07-28T02:57:59.077Z,64.08
2022-07-28T02:58:59.119Z,64.03
2022-07-28T02:59:59.040Z,67.62
2022-07-28T03:00:59.119Z,66.02
2022-07-28T03:01:59.043Z,65.75
2022-07-28T03:02:59.099Z,66.09
2022-07-28T03:03:58.958Z,66.63
2022-07-28T03:04:59.416Z,62.98
2022-07-28T03:05:58.915Z,66.67
2022-07-28T03:06:58.954Z,65.88
2022-07-28T03:07:58.913Z,67.66
2022-07-28T03:08:58.979Z,67.17
2022-07-28T03:09:58.842Z,64.67
2022-07-28T03:10:59.618Z,63.79
2022-07-28T03:11:58.805Z,67.80
2022-07-28T03:12:58.857Z,68.11
2022-07-28T03:13:58.824Z,68.84
2022-07-28T03:14:58.817Z,67.61
2022-07-28T03:15:58.724Z,63.07
2022-07-28T03:16:59.659Z,65.98
2022-07-28T03:17:58.698Z,65.69
2022-07-28T03:18:58.798Z,65.13
2022-07-28T03:19:58.654Z,66.32
2022-07-28T03:20:58.696Z,68.23
2022-07-28T03:21:58.604Z,70.10
2022-07-28T03:22:58.679Z,66.49
2022-07-28T03:23:58.643Z,67.91
2022-07-28T03:24:59.611Z,68.17
2022-07-28T03:25:58.564Z,68.41
2022-07-28T03:26:58.622Z,70.71
2022-07-28T03:27:58.516Z,67.33
2022-07-28T03:28:58.663Z,68.68
2022-07-28T03:30:03.472Z,70.55
2022-07-28T03:30:59.611Z,67.99
2022-07-28T03:31:58.441Z,68.42
2022-07-28T03:32:59.108Z,66.96
2022-07-28T03:33:58.458Z,68.89
2022-07-28T03:34:58.481Z,68.05
2022-07-28T03:35:58.352Z,68.10
2022-07-28T03:36:58.431Z,69.31
2022-07-28T03:37:58.346Z,66.54
2022-07-28T03:38:58.383Z,66.42
2022-07-28T03:39:58.335Z,69.92
2022-07-28T03:40:58.343Z,64.44
2022-07-28T03:41:58.252Z,68.13
2022-07-28T03:42:58.328Z,67.77
2022-07-28T03:43:58.219Z,69.40
2022-07-28T03:44:58.325Z,69.80
2022-07-28T03:45:58.230Z,68.85
2022-07-28T03:46:58.297Z,65.10
2022-07-28T03:47:58.149Z,66.11
2022-07-28T03:48:59.214Z,65.93
2022-07-28T03:49:58.136Z,65.67
2022-07-28T03:50:58.209Z,71.24
2022-07-28T03:51:58.097Z,68.40
2022-07-28T03:52:58.122Z,66.62
2022-07-28T03:53:58.033Z,67.75
2022-07-28T03:54:58.111Z,66.57
2022-07-28T03:55:58.041Z,70.01
2022-07-28T03:56:58.069Z,68.53
2022-07-28T03:57:57.941Z,67.99
2022-07-28T03:58:58.013Z,67.43
2022-07-28T03:59:57.960Z,69.70
2022-07-28T04:00:58.062Z,63.36
2022-07-28T04:01:57.974Z,65.26
2022-07-28T04:02:57.980Z,65.27
2022-07-28T04:03:57.855Z,67.68
2022-07-28T04:04:57.908Z,66.96
2022-07-28T04:05:57.845Z,65.40
2022-07-28T04:06:57.879Z,68.62
2022-07-28T04:07:57.757Z,71.66
2022-07-28T04:08:57.852Z,67.25
2022-07-28T04:09:57.737Z,70.02
2022-07-28T04:10:57.801Z,69.64
2022-07-28T04:11:57.739Z,67.68
2022-07-28T04:12:57.747Z,68.26
2022-07-28T04:13:57.656Z,67.92
2022-07-28T04:14:57.737Z,70.56
2022-07-28T04:15:57.640Z,69.51
2022-07-28T04:16:57.750Z,73.03
2022-07-28T04:17:57.609Z,67.96
2022-07-28T04:18:57.631Z,66.44
2022-07-28T04:19:57.551Z,69.31
2022-07-28T04:20:57.666Z,67.32
2022-07-28T04:21:57.535Z,68.95
2022-07-28T04:22:57.555Z,68.33
2022-07-28T04:24:01.834Z,66.13
2022-07-28T04:24:57.534Z,67.13
2022-07-28T04:25:57.426Z,65.52
2022-07-28T04:26:58.156Z,68.09
2022-07-28T04:27:57.433Z,69.71
2022-07-28T04:28:57.515Z,68.44
2022-07-28T04:29:57.356Z,68.83
2022-07-28T04:30:57.472Z,66.42
2022-07-28T04:31:57.324Z,68.98
2022-07-28T04:32:57.394Z,67.80
2022-07-28T04:33:57.729Z,70.19
2022-07-28T04:34:57.349Z,69.98
2022-07-28T04:35:57.253Z,65.87
2022-07-28T04:36:57.333Z,68.09
2022-07-28T04:37:57.220Z,67.46
2022-07-28T04:38:57.341Z,66.45
2022-07-28T04:39:57.236Z,67.45
2022-07-28T04:40:57.237Z,66.85
2022-07-28T04:41:57.146Z,67.76
2022-07-28T04:42:57.212Z,68.51
2022-07-28T04:43:57.125Z,66.80
2022-07-28T04:44:57.161Z,70.01
2022-07-28T04:45:57.145Z,68.60
2022-07-28T04:46:57.124Z,70.39
2022-07-28T04:47:57.036Z,68.43
2022-07-28T04:48:57.163Z,68.23
2022-07-28T04:49:57.002Z,68.97
2022-07-28T04:50:57.661Z,69.34
2022-07-28T04:51:57.136Z,71.33
2022-07-28T04:52:57.022Z,70.62
2022-07-28T04:53:56.959Z,70.15
2022-07-28T04:54:57.017Z,71.04
2022-07-28T04:55:56.895Z,72.47
2022-07-28T04:56:56.951Z,71.44
2022-07-28T04:57:56.839Z,68.88
2022-07-28T04:58:56.926Z,67.69
2022-07-28T04:59:56.836Z,68.33
2022-07-28T05:00:57.755Z,66.99
2022-07-28T05:01:56.781Z,69.97
2022-07-28T05:02:57.661Z,67.85
2022-07-28T05:03:56.740Z,66.58
2022-07-28T05:04:57.747Z,70.45
2022-07-28T05:05:56.730Z,66.92
2022-07-28T05:06:56.771Z,66.98
2022-07-28T05:07:56.677Z,68.12
2022-07-28T05:08:56.738Z,67.45
2022-07-28T05:09:56.678Z,67.57
2022-07-28T05:10:57.643Z,68.04
2022-07-28T05:11:56.590Z,70.50
2022-07-28T05:12:56.705Z,65.88
2022-07-28T05:13:56.586Z,69.61
2022-07-28T05:14:57.168Z,70.19
2022-07-28T05:15:56.576Z,68.39
2022-07-28T05:16:56.651Z,69.25
2022-07-28T05:17:56.501Z,68.32
2022-07-28T05:18:56.553Z,68.74
2022-07-28T05:19:56.529Z,71.84
2022-07-28T05:20:56.540Z,67.15
2022-07-28T05:21:56.408Z,72.27
2022-07-28T05:22:56.466Z,66.29
2022-07-28T05:23:56.392Z,68.75
2022-07-28T05:24:57.169Z,68.81
2022-07-28T05:25:56.380Z,69.30
2022-07-28T05:26:56.404Z,68.86
2022-07-28T05:27:56.320Z,67.66
2022-07-28T05:28:56.377Z,69.40
2022-07-28T05:29:56.277Z,70.26
2022-07-28T05:30:56.389Z,68.84
2022-07-28T05:31:56.325Z,71.53
2022-07-28T05:32:56.298Z,70.77
2022-07-28T05:33:56.197Z,68.94
2022-07-28T05:34:56.261Z,72.06
2022-07-28T05:35:56.172Z,70.87
2022-07-28T05:36:56.232Z,70.29
2022-07-28T05:37:56.152Z,70.37
2022-07-28T05:38:56.189Z,69.17
2022-07-28T05:39:56.259Z,70.18
2022-07-28T05:40:56.150Z,68.53
2022-07-28T05:41:56.031Z,70.71
2022-07-28T05:42:56.107Z,68.23
2022-07-28T05:43:56.015Z,69.91
2022-07-28T05:44:56.095Z,69.96
2022-07-28T05:45:56.133Z,67.53
2022-07-28T05:46:56.337Z,74.24
2022-07-28T05:47:55.941Z,69.65
2022-07-28T05:48:56.116Z,68.42
2022-07-28T05:49:55.910Z,69.58
2022-07-28T05:50:55.997Z,67.64
2022-07-28T05:51:55.886Z,72.47
2022-07-28T05:52:55.927Z,69.37
2022-07-28T05:53:55.839Z,70.36
2022-07-28T05:54:55.958Z,70.22
2022-07-28T05:56:00.315Z,68.90
2022-07-28T05:56:56.891Z,73.16
2022-07-28T05:57:55.744Z,68.63
2022-07-28T05:58:55.824Z,68.71
2022-07-28T05:59:55.713Z,70.13
2022-07-28T06:00:55.894Z,69.75
2022-07-28T06:01:55.746Z,70.06
2022-07-28T06:02:55.790Z,68.76
2022-07-28T06:04:10.125Z,66.56
2022-07-28T06:04:56.658Z,68.92
2022-07-28T06:05:59.423Z,69.11
2022-07-28T06:06:56.817Z,69.69
2022-07-28T06:07:55.582Z,67.30
2022-07-28T06:08:56.712Z,68.87
2022-07-28T06:09:55.590Z,69.22
2022-07-28T06:10:56.062Z,67.48
2022-07-28T06:11:55.522Z,74.04
2022-07-28T06:12:55.567Z,68.96
2022-07-28T06:13:55.473Z,68.94
2022-07-28T06:14:55.584Z,69.34
2022-07-28T06:15:55.471Z,68.29
2022-07-28T06:16:55.574Z,70.98
2022-07-28T06:17:55.458Z,69.17
2022-07-28T06:18:55.449Z,70.59
2022-07-28T06:19:55.361Z,70.12
2022-07-28T06:20:55.448Z,70.12
2022-07-28T06:21:55.304Z,68.89
2022-07-28T06:22:55.527Z,69.00
2022-07-28T06:23:55.296Z,68.21
2022-07-28T06:24:55.339Z,72.48
2022-07-28T06:25:55.259Z,70.66
2022-07-28T06:26:56.179Z,69.36
2022-07-28T06:27:55.194Z,68.05
2022-07-28T06:28:56.131Z,67.58
2022-07-28T06:29:55.153Z,68.42
2022-07-28T06:30:55.247Z,67.41
2022-07-28T06:31:55.209Z,69.20
2022-07-28T06:32:55.309Z,69.01
2022-07-28T06:33:55.083Z,68.79
2022-07-28T06:34:55.183Z,69.87
2022-07-28T06:35:55.054Z,67.86
2022-07-28T06:36:55.142Z,68.84
2022-07-28T06:37:55.166Z,70.79
2022-07-28T06:38:55.132Z,67.54
2022-07-28T06:39:54.962Z,68.07
2022-07-28T06:40:55.087Z,68.26
2022-07-28T06:41:54.946Z,70.53
2022-07-28T06:42:55.028Z,69.93
2022-07-28T06:43:54.905Z,69.47
2022-07-28T06:44:59.459Z,71.24
2022-07-28T06:45:54.898Z,66.90
2022-07-28T06:46:55.063Z,74.18
2022-07-28T06:47:54.818Z,76.64
2022-07-28T06:48:54.981Z,67.63
2022-07-28T06:49:54.783Z,70.05
2022-07-28T06:50:54.887Z,67.63
2022-07-28T06:51:54.799Z,67.22
2022-07-28T06:52:54.833Z,68.83
2022-07-28T06:53:54.715Z,65.51
2022-07-28T06:54:58.215Z,69.80
2022-07-28T06:55:54.692Z,69.35
2022-07-28T06:56:54.862Z,72.01
2022-07-28T06:57:54.638Z,68.49
2022-07-28T06:58:54.729Z,70.30
2022-07-28T06:59:54.609Z,69.54
2022-07-28T07:00:54.815Z,69.59
2022-07-28T07:01:54.543Z,69.57
2022-07-28T07:02:54.674Z,67.87
2022-07-28T07:03:54.560Z,67.50
2022-07-28T07:04:54.621Z,68.99
2022-07-28T07:05:54.493Z,66.45
2022-07-28T07:06:54.595Z,69.72
2022-07-28T07:07:54.507Z,69.47
2022-07-28T07:08:54.552Z,68.08
2022-07-28T07:09:54.413Z,69.36
2022-07-28T07:10:54.558Z,69.29
2022-07-28T07:11:54.399Z,69.56
2022-07-28T07:12:54.534Z,69.70
2022-07-28T07:13:54.337Z,68.10
2022-07-28T07:14:54.495Z,71.22
2022-07-28T07:15:54.460Z,68.39
2022-07-28T07:16:54.402Z,69.40
2022-07-28T07:17:54.285Z,70.75
2022-07-28T07:18:54.411Z,67.76
2022-07-28T07:19:54.235Z,70.90
2022-07-28T07:20:55.221Z,68.10
2022-07-28T07:21:54.233Z,71.55
2022-07-28T07:22:54.278Z,70.68
2022-07-28T07:23:54.222Z,70.13
2022-07-28T07:24:57.190Z,69.92
2022-07-28T07:25:54.135Z,68.55
2022-07-28T07:26:55.228Z,70.77
2022-07-28T07:27:54.095Z,69.41
2022-07-28T07:28:54.232Z,66.47
2022-07-28T07:29:54.051Z,71.30
2022-07-28T07:30:54.164Z,68.17
2022-07-28T07:31:54.060Z,69.49
2022-07-28T07:32:54.091Z,69.52
2022-07-28T07:33:54.005Z,67.56
2022-07-28T07:34:54.713Z,70.56
2022-07-28T07:35:53.960Z,69.11
2022-07-28T07:36:54.057Z,70.70
2022-07-28T07:37:53.916Z,70.00
2022-07-28T07:38:54.013Z,67.62
2022-07-28T07:39:53.900Z,68.83
2022-07-28T07:40:54.732Z,68.75
2022-07-28T07:41:53.845Z,71.24
2022-07-28T07:42:53.926Z,70.29
2022-07-28T07:43:53.802Z,68.60
2022-07-28T07:44:53.927Z,69.68
2022-07-28T07:45:53.768Z,68.75
2022-07-28T07:46:54.014Z,70.68
2022-07-28T07:47:53.721Z,70.01
2022-07-28T07:48:53.868Z,69.21
2022-07-28T07:49:53.748Z,70.62
2022-07-28T07:50:54.488Z,70.60
2022-07-28T07:51:53.657Z,70.60
2022-07-28T07:52:53.746Z,70.19
2022-07-28T07:53:53.652Z,68.83
2022-07-28T07:54:54.670Z,70.67
2022-07-28T07:55:53.669Z,69.45
2022-07-28T07:56:53.674Z,71.36
2022-07-28T07:57:53.714Z,70.02
2022-07-28T07:58:56.868Z,68.73
2022-07-28T07:59:53.619Z,71.19
2022-07-28T08:00:53.656Z,68.84
2022-07-28T08:01:53.609Z,71.29
2022-07-28T08:02:53.592Z,72.24
2022-07-28T08:03:54.237Z,68.76
2022-07-28T08:04:53.580Z,72.47
2022-07-28T08:05:53.543Z,70.66
2022-07-28T08:06:53.546Z,70.12
2022-07-28T08:07:54.233Z,69.37
2022-07-28T08:08:53.459Z,69.10
2022-07-28T08:09:53.415Z,70.61
2022-07-28T08:10:53.449Z,69.51
2022-07-28T08:11:54.229Z,70.64
2022-07-28T08:12:53.356Z,76.62
2022-07-28T08:13:53.345Z,69.30
2022-07-28T08:14:53.348Z,69.48
2022-07-28T08:15:53.478Z,69.46
2022-07-28T08:16:53.314Z,71.90
2022-07-28T08:17:54.220Z,69.42
2022-07-28T08:18:53.275Z,68.01
2022-07-28T08:19:53.245Z,70.05
2022-07-28T08:20:53.266Z,68.89
2022-07-28T08:21:53.198Z,69.25
2022-07-28T08:22:53.215Z,69.76
2022-07-28T08:23:53.728Z,69.80
2022-07-28T08:24:53.219Z,70.61
2022-07-28T08:25:53.114Z,69.11
2022-07-28T08:26:53.138Z,70.96
2022-07-28T08:27:53.122Z,70.99
2022-07-28T08:28:53.085Z,70.97
2022-07-28T08:29:53.048Z,71.36
2022-07-28T08:30:53.106Z,69.50
2022-07-28T08:31:53.204Z,69.03
2022-07-28T08:32:56.558Z,70.05
2022-07-28T08:33:53.747Z,68.92
2022-07-28T08:35:00.145Z,70.98
2022-07-28T08:35:54.022Z,68.44
2022-07-28T08:36:52.980Z,70.19
2022-07-28T08:37:52.929Z,70.98
2022-07-28T08:38:52.889Z,68.49
2022-07-28T08:39:52.897Z,71.89
2022-07-28T08:40:52.882Z,69.76
2022-07-28T08:41:53.501Z,69.81
2022-07-28T08:42:53.669Z,73.38
2022-07-28T08:43:52.831Z,70.97
2022-07-28T08:44:52.807Z,70.21
2022-07-28T08:45:58.129Z,68.42
2022-07-28T08:46:54.226Z,69.57
2022-07-28T08:48:07.633Z,69.92
2022-07-28T08:48:54.711Z,68.19
2022-07-28T08:49:52.745Z,71.88
2022-07-28T08:50:53.234Z,69.53
2022-07-28T08:51:52.647Z,70.98
2022-07-28T08:52:52.713Z,70.42
2022-07-28T08:53:52.636Z,68.77
2022-07-28T08:54:52.612Z,71.93
2022-07-28T08:55:52.597Z,69.11
2022-07-28T08:56:52.588Z,72.18
2022-07-28T08:57:52.604Z,70.73
2022-07-28T08:58:52.598Z,68.87
2022-07-28T08:59:53.251Z,71.88
2022-07-28T09:00:52.500Z,70.05
2022-07-28T09:01:57.302Z,69.42
2022-07-28T09:02:53.506Z,70.07
2022-07-28T09:03:52.473Z,68.28
2022-07-28T09:04:52.436Z,70.64
2022-07-28T09:05:52.394Z,69.17
2022-07-28T09:06:52.411Z,70.81
2022-07-28T09:07:54.621Z,70.23
2022-07-28T09:08:52.376Z,68.07
2022-07-28T09:09:52.350Z,70.40
2022-07-28T09:10:53.329Z,68.22
2022-07-28T09:11:52.316Z,70.15
2022-07-28T09:12:52.451Z,69.53
2022-07-28T09:13:54.118Z,70.24
2022-07-28T09:14:52.245Z,71.33
2022-07-28T09:15:52.328Z,69.33
2022-07-28T09:16:52.255Z,70.76
2022-07-28T09:17:52.220Z,70.93
2022-07-28T09:18:52.225Z,68.52
2022-07-28T09:19:52.165Z,69.92
2022-07-28T09:20:52.148Z,69.46
2022-07-28T09:21:52.149Z,69.95
2022-07-28T09:22:52.108Z,72.08
2022-07-28T09:23:52.104Z,68.47
2022-07-28T09:24:52.100Z,70.96
2022-07-28T09:25:52.091Z,69.00
2022-07-28T09:26:52.048Z,71.52
2022-07-28T09:27:52.040Z,70.46
2022-07-28T09:28:52.292Z,69.13
2022-07-28T09:29:52.015Z,71.21
2022-07-28T09:30:51.954Z,69.06
2022-07-28T09:31:57.119Z,70.12
2022-07-28T09:32:51.954Z,69.90
2022-07-28T09:33:51.926Z,68.93
2022-07-28T09:34:52.062Z,71.13
2022-07-28T09:35:51.902Z,69.26
2022-07-28T09:36:51.898Z,71.10
2022-07-28T09:37:51.855Z,68.78
2022-07-28T09:38:51.835Z,69.43
2022-07-28T09:39:52.805Z,70.71
2022-07-28T09:40:51.801Z,68.03
2022-07-28T09:41:51.769Z,70.61
2022-07-28T09:42:51.748Z,69.38
2022-07-28T09:43:54.922Z,70.23
2022-07-28T09:45:20.319Z,70.71
2022-07-28T09:45:52.793Z,67.97
2022-07-28T09:46:52.458Z,69.23
2022-07-28T09:47:51.908Z,68.84
2022-07-28T09:48:51.815Z,69.45
2022-07-28T09:49:51.705Z,69.49
2022-07-28T09:50:51.682Z,68.42
2022-07-28T09:51:51.622Z,69.79
2022-07-28T09:52:51.623Z,68.99
2022-07-28T09:53:51.575Z,67.72
2022-07-28T09:54:51.614Z,70.24
2022-07-28T09:55:51.587Z,67.35
2022-07-28T09:56:51.521Z,69.57
2022-07-28T09:57:51.524Z,69.72
2022-07-28T09:58:51.478Z,69.01
2022-07-28T09:59:55.604Z,70.99
2022-07-28T10:00:51.428Z,68.39
2022-07-28T10:01:51.575Z,71.50
2022-07-28T10:02:51.475Z,68.98
2022-07-28T10:03:51.398Z,69.32
2022-07-28T10:04:51.390Z,72.71
2022-07-28T10:05:53.811Z,67.91
2022-07-28T10:06:51.350Z,69.54
2022-07-28T10:07:51.336Z,70.25
2022-07-28T10:08:52.283Z,69.08
2022-07-28T10:09:51.262Z,70.40
2022-07-28T10:10:51.274Z,67.46
2022-07-28T10:11:51.276Z,68.76
2022-07-28T10:12:51.221Z,69.01
2022-07-28T10:13:51.217Z,67.69
2022-07-28T10:14:51.892Z,70.18
2022-07-28T10:15:51.541Z,68.84
2022-07-28T10:16:51.184Z,70.19
2022-07-28T10:17:51.147Z,69.14
2022-07-28T10:18:51.793Z,69.10
2022-07-28T10:19:51.114Z,71.24
2022-07-28T10:20:51.788Z,67.19
2022-07-28T10:21:51.063Z,70.14
2022-07-28T10:22:51.089Z,68.91
2022-07-28T10:23:51.031Z,68.70
2022-07-28T10:24:51.174Z,69.98
2022-07-28T10:25:51.778Z,67.81
2022-07-28T10:26:50.984Z,70.26
2022-07-28T10:27:51.025Z,68.83
2022-07-28T10:28:50.951Z,69.02
2022-07-28T10:29:50.923Z,70.47
2022-07-28T10:30:50.926Z,67.61
2022-07-28T10:31:50.869Z,69.72
2022-07-28T10:32:51.798Z,68.65
2022-07-28T10:33:50.850Z,68.30
2022-07-28T10:34:50.843Z,68.90
2022-07-28T10:35:55.085Z,67.04
2022-07-28T10:36:50.767Z,71.57
2022-07-28T10:37:50.821Z,68.90
2022-07-28T10:38:50.753Z,69.62
2022-07-28T10:39:50.712Z,69.40
2022-07-28T10:40:50.720Z,68.32
2022-07-28T10:41:51.116Z,71.53
2022-07-28T10:42:50.702Z,81.87
2022-07-28T10:43:50.704Z,67.86
2022-07-28T10:44:51.307Z,70.54
2022-07-28T10:46:08.079Z,67.31
2022-07-28T10:46:51.665Z,68.47
2022-07-28T10:47:50.592Z,68.30
2022-07-28T10:48:50.609Z,68.47
2022-07-28T10:49:50.565Z,70.30
2022-07-28T10:50:51.240Z,67.31
2022-07-28T10:52:19.665Z,68.49
2022-07-28T10:52:54.826Z,70.03
2022-07-28T10:53:51.489Z,68.28
2022-07-28T10:54:50.480Z,70.44
2022-07-28T10:55:50.502Z,67.62
2022-07-28T10:56:50.414Z,70.57
2022-07-28T10:58:02.213Z,67.54
2022-07-28T10:58:51.365Z,68.62
2022-07-28T10:59:55.850Z,69.52
2022-07-28T11:01:05.086Z,67.07
2022-07-28T11:01:51.372Z,69.25
2022-07-28T11:02:50.565Z,68.65
2022-07-28T11:03:50.365Z,66.35
2022-07-28T11:04:50.324Z,70.56
2022-07-28T11:05:50.262Z,67.54
2022-07-28T11:06:50.219Z,69.46
2022-07-28T11:07:50.226Z,68.59
2022-07-28T11:08:50.180Z,68.37
2022-07-28T11:09:50.551Z,69.35
2022-07-28T11:10:50.167Z,68.03
2022-07-28T11:11:50.199Z,70.87
2022-07-28T11:12:50.104Z,67.69
2022-07-28T11:13:50.513Z,67.45
2022-07-28T11:14:50.092Z,70.18
2022-07-28T11:15:50.091Z,68.00
2022-07-28T11:16:50.097Z,68.69
2022-07-28T11:17:50.054Z,68.93
2022-07-28T11:18:50.006Z,70.26
2022-07-28T11:20:07.006Z,74.71
2022-07-28T11:20:51.023Z,68.22
2022-07-28T11:21:52.895Z,70.43
2022-07-28T11:22:49.920Z,69.16
2022-07-28T11:23:49.945Z,68.17
2022-07-28T11:24:49.893Z,69.36
2022-07-28T11:25:49.865Z,69.01
2022-07-28T11:26:49.918Z,69.40
2022-07-28T11:27:49.965Z,68.06
2022-07-28T11:28:50.810Z,70.09
2022-07-28T11:29:49.850Z,73.02
2022-07-28T11:30:49.873Z,66.82
2022-07-28T11:31:49.838Z,69.80
2022-07-28T11:32:49.772Z,68.12
2022-07-28T11:33:49.746Z,68.36
2022-07-28T11:34:50.319Z,70.18
2022-07-28T11:35:49.725Z,69.58
2022-07-28T11:36:50.754Z,73.28
2022-07-28T11:37:49.650Z,68.10
2022-07-28T11:38:49.705Z,67.16
2022-07-28T11:39:49.625Z,71.35
2022-07-28T11:40:49.592Z,68.16
2022-07-28T11:41:49.617Z,69.72
2022-07-28T11:42:49.611Z,68.71
2022-07-28T11:43:49.548Z,67.92
2022-07-28T11:44:49.563Z,68.41
2022-07-28T11:45:55.783Z,67.64
2022-07-28T11:46:52.608Z,71.86
2022-07-28T11:47:49.558Z,69.00
2022-07-28T11:48:49.517Z,67.46
2022-07-28T11:49:49.456Z,70.71
2022-07-28T11:50:49.436Z,68.27
2022-07-28T11:51:52.616Z,69.95
2022-07-28T11:52:50.429Z,69.32
2022-07-28T11:53:49.382Z,68.46
2022-07-28T11:54:49.388Z,69.68
2022-07-28T11:56:02.429Z,66.20
2022-07-28T11:56:50.349Z,68.88
2022-07-28T11:57:53.507Z,68.49
2022-07-28T11:58:49.292Z,67.51
2022-07-28T11:59:49.948Z,69.06
2022-07-28T12:00:49.809Z,67.17
2022-07-28T12:01:49.246Z,68.72
2022-07-28T12:02:49.219Z,68.70
2022-07-28T12:03:55.808Z,68.38
2022-07-28T12:04:50.234Z,68.96
2022-07-28T12:05:49.219Z,68.38
2022-07-28T12:06:49.428Z,69.10
2022-07-28T12:07:49.122Z,69.56
2022-07-28T12:08:49.144Z,68.42
2022-07-28T12:09:49.088Z,68.99
2022-07-28T12:10:54.942Z,67.18
2022-07-28T12:11:50.034Z,68.60
2022-07-28T12:12:48.998Z,69.33
2022-07-28T12:13:49.060Z,67.03
2022-07-28T12:14:49.070Z,69.00
2022-07-28T12:15:48.987Z,68.78
2022-07-28T12:16:49.946Z,70.01
2022-07-28T12:17:48.941Z,68.54
2022-07-28T12:18:48.935Z,66.65
2022-07-28T12:19:48.972Z,67.69
2022-07-28T12:20:48.982Z,66.21
2022-07-28T12:21:49.820Z,69.84
2022-07-28T12:22:48.855Z,68.46
2022-07-28T12:23:49.663Z,66.39
2022-07-28T12:24:48.832Z,69.02
2022-07-28T12:25:48.796Z,65.87
2022-07-28T12:26:50.349Z,69.36
2022-07-28T12:27:48.770Z,68.55
2022-07-28T12:28:48.733Z,67.68
2022-07-28T12:29:49.452Z,70.31
2022-07-28T12:30:48.891Z,66.18
2022-07-28T12:31:48.716Z,69.66
2022-07-28T12:32:48.664Z,68.21
2022-07-28T12:33:49.206Z,67.70
2022-07-28T12:34:48.624Z,69.42
2022-07-28T12:35:48.616Z,67.28
2022-07-28T12:36:48.578Z,69.44
2022-07-28T12:37:48.590Z,68.21
2022-07-28T12:38:48.569Z,67.74
2022-07-28T12:39:48.897Z,69.96
2022-07-28T12:40:48.539Z,66.32
2022-07-28T12:41:49.350Z,68.92
2022-07-28T12:42:52.010Z,66.13
2022-07-28T12:43:49.451Z,67.26
2022-07-28T12:44:48.425Z,69.96
2022-07-28T12:45:48.542Z,66.83
2022-07-28T12:46:48.401Z,69.90
2022-07-28T12:47:48.404Z,68.26
2022-07-28T12:48:48.514Z,67.24
2022-07-28T12:49:49.331Z,69.30
2022-07-28T12:50:48.415Z,66.96
2022-07-28T12:51:48.863Z,69.77